Pittsburgh, Pennsylvania
Traffic Map
Current Weather Conditions
Pittsburgh, Pennsylvania
Clear
Clear

Feels Like: 9°
Wind Chill: Ceiling: Unl
Heat Index: Visibility: 10mi
Dew Point: Wind: 0mph
Humidity: 69% Direction: ° ()
Pressure: 30.28in Gusts: 0mph
Raw Report DataKAGC 230553Z 00000KT 10SM CLR 09/04 A3028 RMK AO2 SLP261 T00940039 10128 20083 52003
Traffic Incident Summary
Active as of:
Severity:
Category:
InformationThere was an issue retrieving the traffic information for this location. Please try a different location or try again shortly.
Advertisements
Track Severe Weather on mobile